sensor_id;sensor_type;location;lat;lon;timestamp;temperature;humidity
67549;DHT22;54382;53.524;49.326;2022-08-05T00:00:18;26.30;53.30
67549;DHT22;54382;53.524;49.326;2022-08-05T00:02:45;26.30;53.30
67549;DHT22;54382;53.524;49.326;2022-08-05T00:05:12;26.30;53.30
67549;DHT22;54382;53.524;49.326;2022-08-05T00:07:39;26.30;53.40
67549;DHT22;54382;53.524;49.326;2022-08-05T00:10:06;26.30;53.30
67549;DHT22;54382;53.524;49.326;2022-08-05T00:12:33;26.20;53.10
67549;DHT22;54382;53.524;49.326;2022-08-05T00:15:00;26.20;53.20
67549;DHT22;54382;53.524;49.326;2022-08-05T00:17:27;26.20;53.30
67549;DHT22;54382;53.524;49.326;2022-08-05T00:19:53;26.20;53.10
67549;DHT22;54382;53.524;49.326;2022-08-05T00:22:20;26.20;53.10
67549;DHT22;54382;53.524;49.326;2022-08-05T00:24:47;26.20;53.10
67549;DHT22;54382;53.524;49.326;2022-08-05T00:27:13;26.20;53.20
67549;DHT22;54382;53.524;49.326;2022-08-05T00:29:40;26.20;53.30
67549;DHT22;54382;53.524;49.326;2022-08-05T00:32:07;26.20;53.30
67549;DHT22;54382;53.524;49.326;2022-08-05T00:34:38;26.20;53.30
67549;DHT22;54382;53.524;49.326;2022-08-05T00:37:05;26.20;53.20
67549;DHT22;54382;53.524;49.326;2022-08-05T00:39:32;26.20;53.40
67549;DHT22;54382;53.524;49.326;2022-08-05T00:41:59;26.10;53.40
67549;DHT22;54382;53.524;49.326;2022-08-05T00:44:25;26.10;53.50
67549;DHT22;54382;53.524;49.326;2022-08-05T00:46:52;26.00;53.50
67549;DHT22;54382;53.524;49.326;2022-08-05T00:49:19;26.00;53.60
67549;DHT22;54382;53.524;49.326;2022-08-05T00:51:46;26.00;53.70
67549;DHT22;54382;53.524;49.326;2022-08-05T00:54:12;26.00;53.70
67549;DHT22;54382;53.524;49.326;2022-08-05T00:56:40;26.00;53.90
67549;DHT22;54382;53.524;49.326;2022-08-05T00:59:06;26.00;53.80
67549;DHT22;54382;53.524;49.326;2022-08-05T01:01:33;26.00;53.70
67549;DHT22;54382;53.524;49.326;2022-08-05T01:04:01;26.00;53.60
67549;DHT22;54382;53.524;49.326;2022-08-05T01:06:28;26.00;53.60
67549;DHT22;54382;53.524;49.326;2022-08-05T01:08:55;25.90;53.50
67549;DHT22;54382;53.524;49.326;2022-08-05T01:11:32;25.90;53.60
67549;DHT22;54382;53.524;49.326;2022-08-05T01:16:42;25.90;53.50
67549;DHT22;54382;53.524;49.326;2022-08-05T01:19:21;25.80;53.00
67549;DHT22;54382;53.524;49.326;2022-08-05T01:25:36;25.90;53.30
67549;DHT22;54382;53.524;49.326;2022-08-05T01:28:23;25.90;53.40
67549;DHT22;54382;53.524;49.326;2022-08-05T01:31:10;25.90;53.30
67549;DHT22;54382;53.524;49.326;2022-08-05T01:34:02;25.90;53.50
67549;DHT22;54382;53.524;49.326;2022-08-05T01:36:37;25.90;53.50
67549;DHT22;54382;53.524;49.326;2022-08-05T01:39:06;26.00;53.40
67549;DHT22;54382;53.524;49.326;2022-08-05T01:41:34;26.00;53.30
67549;DHT22;54382;53.524;49.326;2022-08-05T01:44:03;26.20;53.10
67549;DHT22;54382;53.524;49.326;2022-08-05T01:46:32;26.20;53.00
67549;DHT22;54382;53.524;49.326;2022-08-05T01:49:00;26.40;52.80
67549;DHT22;54382;53.524;49.326;2022-08-05T01:51:32;26.50;52.30
67549;DHT22;54382;53.524;49.326;2022-08-05T01:54:02;26.70;52.10
67549;DHT22;54382;53.524;49.326;2022-08-05T01:56:33;26.90;51.60
67549;DHT22;54382;53.524;49.326;2022-08-05T01:59:07;27.10;51.10
67549;DHT22;54382;53.524;49.326;2022-08-05T02:01:36;27.20;50.60
67549;DHT22;54382;53.524;49.326;2022-08-05T02:04:04;27.40;50.20
67549;DHT22;54382;53.524;49.326;2022-08-05T02:06:32;27.70;49.90
67549;DHT22;54382;53.524;49.326;2022-08-05T02:09:00;27.90;49.40
67549;DHT22;54382;53.524;49.326;2022-08-05T02:11:41;28.00;48.70
67549;DHT22;54382;53.524;49.326;2022-08-05T02:14:29;28.20;48.40
67549;DHT22;54382;53.524;49.326;2022-08-05T02:17:11;28.50;48.00
67549;DHT22;54382;53.524;49.326;2022-08-05T02:19:47;28.70;47.70
67549;DHT22;54382;53.524;49.326;2022-08-05T02:22:25;28.80;47.30
67549;DHT22;54382;53.524;49.326;2022-08-05T02:25:11;28.90;47.00
67549;DHT22;54382;53.524;49.326;2022-08-05T02:27:43;29.00;47.00
67549;DHT22;54382;53.524;49.326;2022-08-05T02:30:15;29.10;46.90
67549;DHT22;54382;53.524;49.326;2022-08-05T02:32:45;29.10;47.60
67549;DHT22;54382;53.524;49.326;2022-08-05T02:35:15;29.10;47.10
67549;DHT22;54382;53.524;49.326;2022-08-05T02:37:45;29.10;47.00
67549;DHT22;54382;53.524;49.326;2022-08-05T02:40:14;29.20;47.10
67549;DHT22;54382;53.524;49.326;2022-08-05T02:42:42;29.20;47.10
67549;DHT22;54382;53.524;49.326;2022-08-05T02:45:10;29.20;47.30
67549;DHT22;54382;53.524;49.326;2022-08-05T02:47:39;29.30;47.30
67549;DHT22;54382;53.524;49.326;2022-08-05T02:50:07;29.40;47.10
67549;DHT22;54382;53.524;49.326;2022-08-05T02:52:35;29.40;47.00
67549;DHT22;54382;53.524;49.326;2022-08-05T02:55:02;29.40;47.00
67549;DHT22;54382;53.524;49.326;2022-08-05T02:57:31;29.50;46.50
67549;DHT22;54382;53.524;49.326;2022-08-05T02:59:58;29.60;46.50
67549;DHT22;54382;53.524;49.326;2022-08-05T03:02:33;29.70;46.10
67549;DHT22;54382;53.524;49.326;2022-08-05T03:05:01;29.80;45.80
67549;DHT22;54382;53.524;49.326;2022-08-05T03:07:30;30.00;45.70
67549;DHT22;54382;53.524;49.326;2022-08-05T03:09:57;30.30;45.20
67549;DHT22;54382;53.524;49.326;2022-08-05T03:12:34;30.60;44.60
67549;DHT22;54382;53.524;49.326;2022-08-05T03:15:03;30.90;44.40
67549;DHT22;54382;53.524;49.326;2022-08-05T03:17:31;31.20;43.60
67549;DHT22;54382;53.524;49.326;2022-08-05T03:19:57;31.50;42.80
67549;DHT22;54382;53.524;49.326;2022-08-05T03:22:24;31.60;41.50
67549;DHT22;54382;53.524;49.326;2022-08-05T03:24:51;31.80;41.10
67549;DHT22;54382;53.524;49.326;2022-08-05T03:27:19;31.90;40.70
67549;DHT22;54382;53.524;49.326;2022-08-05T03:29:46;32.10;40.10
67549;DHT22;54382;53.524;49.326;2022-08-05T03:32:13;32.20;40.10
67549;DHT22;54382;53.524;49.326;2022-08-05T03:34:42;32.30;39.30
67549;DHT22;54382;53.524;49.326;2022-08-05T03:37:09;32.30;39.20
67549;DHT22;54382;53.524;49.326;2022-08-05T03:39:35;32.40;39.00
67549;DHT22;54382;53.524;49.326;2022-08-05T03:42:03;32.50;39.10
67549;DHT22;54382;53.524;49.326;2022-08-05T03:44:30;32.60;38.80
67549;DHT22;54382;53.524;49.326;2022-08-05T03:46:56;32.60;38.30
67549;DHT22;54382;53.524;49.326;2022-08-05T03:49:23;32.70;38.20
67549;DHT22;54382;53.524;49.326;2022-08-05T03:51:59;32.80;37.60
67549;DHT22;54382;53.524;49.326;2022-08-05T03:54:44;32.80;37.90
67549;DHT22;54382;53.524;49.326;2022-08-05T03:57:30;32.80;37.40
67549;DHT22;54382;53.524;49.326;2022-08-05T04:00:09;32.90;37.20
67549;DHT22;54382;53.524;49.326;2022-08-05T04:02:40;32.90;37.20
67549;DHT22;54382;53.524;49.326;2022-08-05T04:05:09;32.90;37.00
67549;DHT22;54382;53.524;49.326;2022-08-05T04:07:39;32.90;37.10
67549;DHT22;54382;53.524;49.326;2022-08-05T04:10:08;33.00;36.80
67549;DHT22;54382;53.524;49.326;2022-08-05T04:12:35;33.20;36.70
67549;DHT22;54382;53.524;49.326;2022-08-05T04:15:02;33.40;37.00
67549;DHT22;54382;53.524;49.326;2022-08-05T04:17:33;33.70;36.30
67549;DHT22;54382;53.524;49.326;2022-08-05T04:19:59;34.00;35.10
67549;DHT22;54382;53.524;49.326;2022-08-05T04:22:26;34.50;35.10
67549;DHT22;54382;53.524;49.326;2022-08-05T04:24:52;34.90;34.80
67549;DHT22;54382;53.524;49.326;2022-08-05T04:27:19;35.30;34.30
67549;DHT22;54382;53.524;49.326;2022-08-05T04:29:46;35.70;33.70
67549;DHT22;54382;53.524;49.326;2022-08-05T04:32:12;36.20;32.90
67549;DHT22;54382;53.524;49.326;2022-08-05T04:34:39;36.50;32.50
67549;DHT22;54382;53.524;49.326;2022-08-05T04:37:05;36.80;32.20
67549;DHT22;54382;53.524;49.326;2022-08-05T04:39:32;37.10;31.90
67549;DHT22;54382;53.524;49.326;2022-08-05T04:41:59;37.30;32.10
67549;DHT22;54382;53.524;49.326;2022-08-05T04:44:25;37.50;32.10
67549;DHT22;54382;53.524;49.326;2022-08-05T04:46:52;37.70;31.70
67549;DHT22;54382;53.524;49.326;2022-08-05T04:49:19;37.80;31.30
67549;DHT22;54382;53.524;49.326;2022-08-05T04:51:45;38.00;31.30
67549;DHT22;54382;53.524;49.326;2022-08-05T04:54:12;38.10;31.20
67549;DHT22;54382;53.524;49.326;2022-08-05T04:56:39;38.30;30.90
67549;DHT22;54382;53.524;49.326;2022-08-05T04:59:06;38.40;30.70
67549;DHT22;54382;53.524;49.326;2022-08-05T05:01:33;38.50;31.00
67549;DHT22;54382;53.524;49.326;2022-08-05T05:03:59;38.70;30.70
67549;DHT22;54382;53.524;49.326;2022-08-05T05:06:26;38.90;30.20
67549;DHT22;54382;53.524;49.326;2022-08-05T05:08:53;39.10;30.00
67549;DHT22;54382;53.524;49.326;2022-08-05T05:11:19;39.30;29.90
67549;DHT22;54382;53.524;49.326;2022-08-05T05:13:47;39.40;29.80
67549;DHT22;54382;53.524;49.326;2022-08-05T05:16:13;39.60;29.40
67549;DHT22;54382;53.524;49.326;2022-08-05T05:18:40;39.80;29.30
67549;DHT22;54382;53.524;49.326;2022-08-05T05:21:08;39.90;29.30
67549;DHT22;54382;53.524;49.326;2022-08-05T05:23:35;40.10;29.10
67549;DHT22;54382;53.524;49.326;2022-08-05T05:26:01;40.20;29.50
67549;DHT22;54382;53.524;49.326;2022-08-05T05:28:28;40.30;29.30
67549;DHT22;54382;53.524;49.326;2022-08-05T05:30:55;40.30;29.20
67549;DHT22;54382;53.524;49.326;2022-08-05T05:33:21;40.40;29.20
67549;DHT22;54382;53.524;49.326;2022-08-05T05:35:48;40.40;29.40
67549;DHT22;54382;53.524;49.326;2022-08-05T05:38:16;40.30;29.50
67549;DHT22;54382;53.524;49.326;2022-08-05T05:40:43;40.20;29.50
67549;DHT22;54382;53.524;49.326;2022-08-05T05:43:10;40.10;29.60
67549;DHT22;54382;53.524;49.326;2022-08-05T05:45:36;40.00;29.60
67549;DHT22;54382;53.524;49.326;2022-08-05T05:48:03;40.00;30.00
67549;DHT22;54382;53.524;49.326;2022-08-05T05:50:34;39.90;29.90
67549;DHT22;54382;53.524;49.326;2022-08-05T05:53:01;39.80;30.00
67549;DHT22;54382;53.524;49.326;2022-08-05T05:55:28;39.70;30.10
67549;DHT22;54382;53.524;49.326;2022-08-05T05:57:54;39.60;30.20
67549;DHT22;54382;53.524;49.326;2022-08-05T06:00:21;39.50;30.50
67549;DHT22;54382;53.524;49.326;2022-08-05T06:02:49;39.50;30.60
67549;DHT22;54382;53.524;49.326;2022-08-05T06:05:16;39.50;30.70
67549;DHT22;54382;53.524;49.326;2022-08-05T06:07:44;39.50;30.10
67549;DHT22;54382;53.524;49.326;2022-08-05T06:10:12;39.50;30.10
67549;DHT22;54382;53.524;49.326;2022-08-05T06:12:39;39.60;30.60
67549;DHT22;54382;53.524;49.326;2022-08-05T06:15:07;39.70;30.20
67549;DHT22;54382;53.524;49.326;2022-08-05T06:17:34;39.80;29.90
67549;DHT22;54382;53.524;49.326;2022-08-05T06:20:02;39.90;29.50
67549;DHT22;54382;53.524;49.326;2022-08-05T06:22:32;39.90;29.60
67549;DHT22;54382;53.524;49.326;2022-08-05T06:25:00;39.90;29.60
67549;DHT22;54382;53.524;49.326;2022-08-05T06:27:27;39.90;29.50
67549;DHT22;54382;53.524;49.326;2022-08-05T06:29:54;39.90;29.70
67549;DHT22;54382;53.524;49.326;2022-08-05T06:32:21;39.90;29.60
67549;DHT22;54382;53.524;49.326;2022-08-05T06:34:47;39.90;29.70
67549;DHT22;54382;53.524;49.326;2022-08-05T06:37:14;40.00;29.60
67549;DHT22;54382;53.524;49.326;2022-08-05T06:39:41;39.90;29.50
67549;DHT22;54382;53.524;49.326;2022-08-05T06:42:08;39.90;29.60
67549;DHT22;54382;53.524;49.326;2022-08-05T06:44:35;39.90;29.20
67549;DHT22;54382;53.524;49.326;2022-08-05T06:47:02;40.00;29.00
67549;DHT22;54382;53.524;49.326;2022-08-05T06:49:29;40.00;29.20
67549;DHT22;54382;53.524;49.326;2022-08-05T06:51:55;40.20;29.20
67549;DHT22;54382;53.524;49.326;2022-08-05T06:54:23;40.50;28.90
67549;DHT22;54382;53.524;49.326;2022-08-05T06:56:49;40.60;29.30
67549;DHT22;54382;53.524;49.326;2022-08-05T06:59:16;40.80;28.70
67549;DHT22;54382;53.524;49.326;2022-08-05T07:01:43;40.90;28.50
67549;DHT22;54382;53.524;49.326;2022-08-05T07:04:09;40.80;28.30
67549;DHT22;54382;53.524;49.326;2022-08-05T07:06:36;40.80;28.20
67549;DHT22;54382;53.524;49.326;2022-08-05T07:09:03;40.80;28.00
67549;DHT22;54382;53.524;49.326;2022-08-05T07:11:31;40.80;28.30
67549;DHT22;54382;53.524;49.326;2022-08-05T07:13:58;40.90;27.80
67549;DHT22;54382;53.524;49.326;2022-08-05T07:16:44;41.00;28.10
67549;DHT22;54382;53.524;49.326;2022-08-05T07:19:20;41.00;27.70
67549;DHT22;54382;53.524;49.326;2022-08-05T07:21:48;41.10;27.60
67549;DHT22;54382;53.524;49.326;2022-08-05T07:24:16;41.10;27.40
67549;DHT22;54382;53.524;49.326;2022-08-05T07:26:44;41.20;27.10
67549;DHT22;54382;53.524;49.326;2022-08-05T07:29:12;41.20;26.90
67549;DHT22;54382;53.524;49.326;2022-08-05T07:31:40;41.30;26.90
67549;DHT22;54382;53.524;49.326;2022-08-05T07:34:08;41.40;27.20
67549;DHT22;54382;53.524;49.326;2022-08-05T07:36:34;41.60;26.90
67549;DHT22;54382;53.524;49.326;2022-08-05T07:39:04;41.60;26.50
67549;DHT22;54382;53.524;49.326;2022-08-05T07:41:32;41.80;25.90
67549;DHT22;54382;53.524;49.326;2022-08-05T07:44:00;41.90;26.40
67549;DHT22;54382;53.524;49.326;2022-08-05T07:46:30;42.00;25.70
67549;DHT22;54382;53.524;49.326;2022-08-05T07:48:59;42.10;25.80
67549;DHT22;54382;53.524;49.326;2022-08-05T07:51:26;42.10;25.90
67549;DHT22;54382;53.524;49.326;2022-08-05T07:53:53;42.00;25.70
67549;DHT22;54382;53.524;49.326;2022-08-05T07:56:20;41.90;25.70
67549;DHT22;54382;53.524;49.326;2022-08-05T07:58:47;41.90;25.60
67549;DHT22;54382;53.524;49.326;2022-08-05T08:01:15;41.80;26.00
67549;DHT22;54382;53.524;49.326;2022-08-05T08:03:42;41.80;27.60
67549;DHT22;54382;53.524;49.326;2022-08-05T08:06:09;41.80;28.10
67549;DHT22;54382;53.524;49.326;2022-08-05T08:08:36;41.80;27.50
67549;DHT22;54382;53.524;49.326;2022-08-05T08:11:05;41.80;27.60
67549;DHT22;54382;53.524;49.326;2022-08-05T08:13:32;41.80;27.30
67549;DHT22;54382;53.524;49.326;2022-08-05T08:16:00;41.80;27.70
67549;DHT22;54382;53.524;49.326;2022-08-05T08:18:27;41.80;28.10
67549;DHT22;54382;53.524;49.326;2022-08-05T08:20:55;41.70;28.10
67549;DHT22;54382;53.524;49.326;2022-08-05T08:23:23;41.50;28.70
67549;DHT22;54382;53.524;49.326;2022-08-05T08:25:50;41.40;28.90
67549;DHT22;54382;53.524;49.326;2022-08-05T08:28:18;41.30;28.90
67549;DHT22;54382;53.524;49.326;2022-08-05T08:30:46;41.20;29.30
67549;DHT22;54382;53.524;49.326;2022-08-05T08:33:13;41.00;29.20
67549;DHT22;54382;53.524;49.326;2022-08-05T08:35:40;40.70;29.00
67549;DHT22;54382;53.524;49.326;2022-08-05T08:38:09;40.40;28.60
67549;DHT22;54382;53.524;49.326;2022-08-05T08:40:37;40.20;29.00
67549;DHT22;54382;53.524;49.326;2022-08-05T08:43:06;39.90;29.40
67549;DHT22;54382;53.524;49.326;2022-08-05T08:45:37;39.70;29.70
67549;DHT22;54382;53.524;49.326;2022-08-05T08:48:05;39.60;30.00
67549;DHT22;54382;53.524;49.326;2022-08-05T08:50:32;39.60;30.80
67549;DHT22;54382;53.524;49.326;2022-08-05T08:53:06;39.50;30.90
67549;DHT22;54382;53.524;49.326;2022-08-05T08:55:33;39.40;31.20
67549;DHT22;54382;53.524;49.326;2022-08-05T08:58:00;39.40;31.40
67549;DHT22;54382;53.524;49.326;2022-08-05T09:00:29;39.30;31.10
67549;DHT22;54382;53.524;49.326;2022-08-05T09:02:56;39.30;31.70
67549;DHT22;54382;53.524;49.326;2022-08-05T09:05:23;39.30;31.50
67549;DHT22;54382;53.524;49.326;2022-08-05T09:07:53;39.20;31.30
67549;DHT22;54382;53.524;49.326;2022-08-05T09:10:22;39.10;32.00
67549;DHT22;54382;53.524;49.326;2022-08-05T09:12:50;39.10;32.10
67549;DHT22;54382;53.524;49.326;2022-08-05T09:15:17;39.10;32.30
67549;DHT22;54382;53.524;49.326;2022-08-05T09:17:44;39.00;32.30
67549;DHT22;54382;53.524;49.326;2022-08-05T09:20:11;39.00;29.90
67549;DHT22;54382;53.524;49.326;2022-08-05T09:23:07;39.00;28.40
67549;DHT22;54382;53.524;49.326;2022-08-05T09:25:43;39.00;27.60
67549;DHT22;54382;53.524;49.326;2022-08-05T09:28:19;39.00;27.10
67549;DHT22;54382;53.524;49.326;2022-08-05T09:31:10;39.10;27.10
67549;DHT22;54382;53.524;49.326;2022-08-05T09:34:00;39.30;26.10
67549;DHT22;54382;53.524;49.326;2022-08-05T09:36:43;39.30;25.60
67549;DHT22;54382;53.524;49.326;2022-08-05T09:39:15;39.50;25.60
67549;DHT22;54382;53.524;49.326;2022-08-05T09:41:59;39.70;25.70
67549;DHT22;54382;53.524;49.326;2022-08-05T09:44:38;39.90;26.00
67549;DHT22;54382;53.524;49.326;2022-08-05T09:49:44;40.20;24.90
67549;DHT22;54382;53.524;49.326;2022-08-05T09:52:29;40.40;25.20
67549;DHT22;54382;53.524;49.326;2022-08-05T09:55:10;40.50;24.70
67549;DHT22;54382;53.524;49.326;2022-08-05T09:57:42;40.60;24.70
67549;DHT22;54382;53.524;49.326;2022-08-05T10:00:13;40.80;24.40
67549;DHT22;54382;53.524;49.326;2022-08-05T10:02:47;40.80;23.90
67549;DHT22;54382;53.524;49.326;2022-08-05T10:05:18;40.80;24.10
67549;DHT22;54382;53.524;49.326;2022-08-05T10:07:52;40.80;24.40
67549;DHT22;54382;53.524;49.326;2022-08-05T10:10:22;40.80;24.30
67549;DHT22;54382;53.524;49.326;2022-08-05T10:13:34;40.80;24.80
67549;DHT22;54382;53.524;49.326;2022-08-05T10:16:03;40.70;25.30
67549;DHT22;54382;53.524;49.326;2022-08-05T10:18:31;40.60;25.60
67549;DHT22;54382;53.524;49.326;2022-08-05T10:21:03;40.60;25.90
67549;DHT22;54382;53.524;49.326;2022-08-05T10:23:36;40.60;25.80
67549;DHT22;54382;53.524;49.326;2022-08-05T10:26:08;40.60;25.30
67549;DHT22;54382;53.524;49.326;2022-08-05T10:28:37;40.80;25.30
67549;DHT22;54382;53.524;49.326;2022-08-05T10:31:04;40.90;24.60
67549;DHT22;54382;53.524;49.326;2022-08-05T10:33:33;41.00;24.70
67549;DHT22;54382;53.524;49.326;2022-08-05T10:36:02;41.20;24.40
67549;DHT22;54382;53.524;49.326;2022-08-05T10:38:30;41.40;24.30
67549;DHT22;54382;53.524;49.326;2022-08-05T10:41:25;41.60;24.20
67549;DHT22;54382;53.524;49.326;2022-08-05T10:44:05;41.90;23.80
67549;DHT22;54382;53.524;49.326;2022-08-05T10:46:46;42.10;23.70
67549;DHT22;54382;53.524;49.326;2022-08-05T10:49:15;42.30;23.70
67549;DHT22;54382;53.524;49.326;2022-08-05T10:51:51;42.40;24.30
67549;DHT22;54382;53.524;49.326;2022-08-05T10:55:00;42.40;24.80
67549;DHT22;54382;53.524;49.326;2022-08-05T10:57:29;42.50;24.10
67549;DHT22;54382;53.524;49.326;2022-08-05T11:00:10;42.70;23.90
67549;DHT22;54382;53.524;49.326;2022-08-05T11:05:35;42.80;23.70
67549;DHT22;54382;53.524;49.326;2022-08-05T11:08:05;42.90;23.40
67549;DHT22;54382;53.524;49.326;2022-08-05T11:10:34;43.10;23.30
67549;DHT22;54382;53.524;49.326;2022-08-05T11:13:04;43.20;23.20
67549;DHT22;54382;53.524;49.326;2022-08-05T11:15:34;43.30;23.60
67549;DHT22;54382;53.524;49.326;2022-08-05T11:18:27;43.50;23.20
67549;DHT22;54382;53.524;49.326;2022-08-05T11:20:55;43.70;23.20
67549;DHT22;54382;53.524;49.326;2022-08-05T11:26:33;44.10;22.90
67549;DHT22;54382;53.524;49.326;2022-08-05T11:29:02;44.00;23.00
67549;DHT22;54382;53.524;49.326;2022-08-05T11:31:30;43.80;23.20
67549;DHT22;54382;53.524;49.326;2022-08-05T11:34:05;43.70;23.40
67549;DHT22;54382;53.524;49.326;2022-08-05T11:36:47;43.60;23.30
67549;DHT22;54382;53.524;49.326;2022-08-05T11:39:46;43.60;23.40
67549;DHT22;54382;53.524;49.326;2022-08-05T11:42:15;43.60;23.30
67549;DHT22;54382;53.524;49.326;2022-08-05T11:44:43;43.60;23.60
67549;DHT22;54382;53.524;49.326;2022-08-05T11:47:11;43.60;23.30
67549;DHT22;54382;53.524;49.326;2022-08-05T11:49:38;43.50;23.30
67549;DHT22;54382;53.524;49.326;2022-08-05T11:52:05;43.50;23.50
67549;DHT22;54382;53.524;49.326;2022-08-05T11:54:32;43.30;23.20
67549;DHT22;54382;53.524;49.326;2022-08-05T11:57:00;43.10;23.20
67549;DHT22;54382;53.524;49.326;2022-08-05T11:59:29;42.90;23.60
67549;DHT22;54382;53.524;49.326;2022-08-05T12:02:06;42.90;23.90
67549;DHT22;54382;53.524;49.326;2022-08-05T12:04:44;42.90;23.90
67549;DHT22;54382;53.524;49.326;2022-08-05T12:07:15;43.10;24.00
67549;DHT22;54382;53.524;49.326;2022-08-05T12:09:47;43.20;23.60
67549;DHT22;54382;53.524;49.326;2022-08-05T12:12:24;43.20;23.70
67549;DHT22;54382;53.524;49.326;2022-08-05T12:14:55;43.30;23.80
67549;DHT22;54382;53.524;49.326;2022-08-05T12:17:22;43.20;24.10
67549;DHT22;54382;53.524;49.326;2022-08-05T12:19:51;43.00;24.10
67549;DHT22;54382;53.524;49.326;2022-08-05T12:22:20;42.70;24.30
67549;DHT22;54382;53.524;49.326;2022-08-05T12:24:51;42.40;24.70
67549;DHT22;54382;53.524;49.326;2022-08-05T12:27:22;42.10;24.90
67549;DHT22;54382;53.524;49.326;2022-08-05T12:30:07;41.80;25.00
67549;DHT22;54382;53.524;49.326;2022-08-05T12:32:46;41.40;25.30
67549;DHT22;54382;53.524;49.326;2022-08-05T12:35:16;41.20;25.40
67549;DHT22;54382;53.524;49.326;2022-08-05T12:37:45;41.00;25.50
67549;DHT22;54382;53.524;49.326;2022-08-05T12:40:12;40.80;25.70
67549;DHT22;54382;53.524;49.326;2022-08-05T12:42:40;40.80;25.80
67549;DHT22;54382;53.524;49.326;2022-08-05T12:45:09;40.60;25.80
67549;DHT22;54382;53.524;49.326;2022-08-05T12:47:36;40.60;25.90
67549;DHT22;54382;53.524;49.326;2022-08-05T12:50:16;40.50;25.80
67549;DHT22;54382;53.524;49.326;2022-08-05T12:52:57;40.40;25.90
67549;DHT22;54382;53.524;49.326;2022-08-05T12:55:25;40.50;25.90
67549;DHT22;54382;53.524;49.326;2022-08-05T12:57:54;40.50;25.90
67549;DHT22;54382;53.524;49.326;2022-08-05T13:00:23;40.70;25.90
67549;DHT22;54382;53.524;49.326;2022-08-05T13:02:53;40.80;26.00
67549;DHT22;54382;53.524;49.326;2022-08-05T13:05:22;40.90;26.00
67549;DHT22;54382;53.524;49.326;2022-08-05T13:07:49;41.00;25.60
67549;DHT22;54382;53.524;49.326;2022-08-05T13:10:16;41.10;25.50
67549;DHT22;54382;53.524;49.326;2022-08-05T13:12:44;41.20;25.30
67549;DHT22;54382;53.524;49.326;2022-08-05T13:15:13;41.30;25.20
67549;DHT22;54382;53.524;49.326;2022-08-05T13:17:40;41.30;25.10
67549;DHT22;54382;53.524;49.326;2022-08-05T13:20:18;41.40;25.20
67549;DHT22;54382;53.524;49.326;2022-08-05T13:22:47;41.40;25.10
67549;DHT22;54382;53.524;49.326;2022-08-05T13:25:16;41.40;25.20
67549;DHT22;54382;53.524;49.326;2022-08-05T13:27:51;41.40;25.20
67549;DHT22;54382;53.524;49.326;2022-08-05T13:30:21;41.30;25.30
67549;DHT22;54382;53.524;49.326;2022-08-05T13:32:49;41.30;25.50
67549;DHT22;54382;53.524;49.326;2022-08-05T13:35:18;41.30;25.30
67549;DHT22;54382;53.524;49.326;2022-08-05T13:37:46;41.30;26.10
67549;DHT22;54382;53.524;49.326;2022-08-05T13:40:14;41.30;25.40
67549;DHT22;54382;53.524;49.326;2022-08-05T13:42:41;41.30;25.20
67549;DHT22;54382;53.524;49.326;2022-08-05T13:45:09;41.30;25.20
67549;DHT22;54382;53.524;49.326;2022-08-05T13:47:36;41.20;25.10
67549;DHT22;54382;53.524;49.326;2022-08-05T13:50:05;41.10;25.20
67549;DHT22;54382;53.524;49.326;2022-08-05T13:52:32;41.10;25.20
67549;DHT22;54382;53.524;49.326;2022-08-05T13:54:59;41.10;25.20
67549;DHT22;54382;53.524;49.326;2022-08-05T13:57:26;41.10;25.20
67549;DHT22;54382;53.524;49.326;2022-08-05T13:59:52;41.20;25.20
67549;DHT22;54382;53.524;49.326;2022-08-05T14:02:19;41.20;25.20
67549;DHT22;54382;53.524;49.326;2022-08-05T14:04:46;41.20;25.10
67549;DHT22;54382;53.524;49.326;2022-08-05T14:07:39;41.20;25.10
67549;DHT22;54382;53.524;49.326;2022-08-05T14:12:38;41.30;25.00
67549;DHT22;54382;53.524;49.326;2022-08-05T14:15:06;41.40;24.90
67549;DHT22;54382;53.524;49.326;2022-08-05T14:17:33;41.50;24.90
67549;DHT22;54382;53.524;49.326;2022-08-05T14:20:00;41.60;25.00
67549;DHT22;54382;53.524;49.326;2022-08-05T14:22:27;41.70;25.10
67549;DHT22;54382;53.524;49.326;2022-08-05T14:24:53;41.80;24.70
67549;DHT22;54382;53.524;49.326;2022-08-05T14:27:20;41.90;24.70
67549;DHT22;54382;53.524;49.326;2022-08-05T14:29:46;41.90;24.50
67549;DHT22;54382;53.524;49.326;2022-08-05T14:32:13;41.90;24.50
67549;DHT22;54382;53.524;49.326;2022-08-05T14:34:40;42.00;24.40
67549;DHT22;54382;53.524;49.326;2022-08-05T14:37:06;42.00;24.50
67549;DHT22;54382;53.524;49.326;2022-08-05T14:39:34;41.90;24.60
67549;DHT22;54382;53.524;49.326;2022-08-05T14:42:00;41.80;24.70
67549;DHT22;54382;53.524;49.326;2022-08-05T14:44:27;41.70;24.80
67549;DHT22;54382;53.524;49.326;2022-08-05T14:46:54;41.70;25.00
67549;DHT22;54382;53.524;49.326;2022-08-05T14:49:20;41.60;25.10
67549;DHT22;54382;53.524;49.326;2022-08-05T14:51:47;41.60;25.20
67549;DHT22;54382;53.524;49.326;2022-08-05T14:54:14;41.50;25.30
67549;DHT22;54382;53.524;49.326;2022-08-05T14:56:41;41.40;25.50
67549;DHT22;54382;53.524;49.326;2022-08-05T14:59:07;41.30;25.70
67549;DHT22;54382;53.524;49.326;2022-08-05T15:01:34;41.20;25.60
67549;DHT22;54382;53.524;49.326;2022-08-05T15:04:01;41.10;25.70
67549;DHT22;54382;53.524;49.326;2022-08-05T15:06:28;40.90;25.60
67549;DHT22;54382;53.524;49.326;2022-08-05T15:08:54;40.80;25.80
67549;DHT22;54382;53.524;49.326;2022-08-05T15:11:22;40.70;26.40
67549;DHT22;54382;53.524;49.326;2022-08-05T15:13:49;40.50;25.80
67549;DHT22;54382;53.524;49.326;2022-08-05T15:16:15;40.40;26.00
67549;DHT22;54382;53.524;49.326;2022-08-05T15:18:42;40.20;26.10
67549;DHT22;54382;53.524;49.326;2022-08-05T15:21:09;40.10;26.40
67549;DHT22;54382;53.524;49.326;2022-08-05T15:23:35;39.90;26.40
67549;DHT22;54382;53.524;49.326;2022-08-05T15:26:02;39.80;26.70
67549;DHT22;54382;53.524;49.326;2022-08-05T15:28:29;39.60;26.80
67549;DHT22;54382;53.524;49.326;2022-08-05T15:30:55;39.40;27.50
67549;DHT22;54382;53.524;49.326;2022-08-05T15:33:22;39.30;27.20
67549;DHT22;54382;53.524;49.326;2022-08-05T15:35:49;39.20;27.10
67549;DHT22;54382;53.524;49.326;2022-08-05T15:38:15;39.00;27.00
67549;DHT22;54382;53.524;49.326;2022-08-05T15:40:42;38.80;27.10
67549;DHT22;54382;53.524;49.326;2022-08-05T15:43:08;38.60;27.20
67549;DHT22;54382;53.524;49.326;2022-08-05T15:45:35;38.40;27.50
67549;DHT22;54382;53.524;49.326;2022-08-05T15:48:03;38.30;27.50